Time;durP1;ratioP1;P1;durP2;ratioP2;P2;SDS_P1;SDS_P2;PMS_P1;PMS_P2;Temp;Humidity;BMP_temperature;BMP_pressure;BME280_temperature;BME280_humidity;BME280_pressure;Samples;Min_cycle;Max_cycle;Signal;HPM_P1;HPM_P2
2022/12/07 00:01:32;;;;;;;11.05;1.90;;;4.60;99.90;;;;;;5111003;28;20511;-75
2022/12/07 00:04:05;;;;;;;12.20;2.30;;;4.10;99.90;;;;;;5099394;28;20043;-74
2022/12/07 00:06:32;;;;;;;;;;;4.20;99.90;;;;;;5077214;28;20150;-75
2022/12/07 00:08:58;;;;;;;8.68;1.58;;;5.80;99.90;;;;;;5092527;28;19955;-75
2022/12/07 00:11:27;;;;;;;8.75;1.70;;;4.60;99.90;;;;;;5092567;28;20047;-76
2022/12/07 00:13:55;;;;;;;9.35;1.83;;;4.30;99.90;;;;;;5094993;28;20100;-76
2022/12/07 00:16:23;;;;;;;7.32;1.80;;;4.20;99.90;;;;;;5104554;28;20047;-74
2022/12/07 00:18:51;;;;;;;8.20;1.65;;;6.00;99.90;;;;;;5094609;28;20100;-76
2022/12/07 00:21:24;;;;;;;10.93;1.90;;;4.20;99.90;;;;;;5110566;28;20393;-75
2022/12/07 00:23:51;;;;;;;9.57;1.60;;;4.10;99.90;;;;;;5109275;28;20040;-74
2022/12/07 00:26:45;;;;;;;8.60;1.80;;;4.10;99.90;;;;;;5093347;28;20493;-75
2022/12/07 00:29:19;;;;;;;12.63;2.10;;;4.20;99.90;;;;;;5087785;28;20037;-75
2022/12/07 00:31:45;;;;;;;10.30;1.88;;;5.10;99.90;;;;;;5091101;28;20328;-74
2022/12/07 00:34:17;;;;;;;9.85;1.90;;;4.30;99.90;;;;;;5103626;28;20063;-75
2022/12/07 00:36:43;;;;;;;8.37;1.77;;;4.00;99.90;;;;;;5093481;28;20043;-74
2022/12/07 00:39:08;;;;;;;12.77;1.88;;;4.00;99.90;;;;;;5082534;28;20446;-75
2022/12/07 00:41:34;;;;;;;11.88;1.80;;;4.00;99.90;;;;;;5078991;28;20643;-74
2022/12/07 00:44:00;;;;;;;11.40;1.75;;;4.00;99.90;;;;;;5090105;28;20501;-75
2022/12/07 00:46:26;;;;;;;11.07;2.05;;;4.00;99.90;;;;;;5093612;28;20408;-75
2022/12/07 00:49:02;;;;;;;10.00;1.80;;;4.00;99.90;;;;;;5097461;28;20119;-75
2022/12/07 00:51:28;;;;;;;11.93;1.95;;;4.00;99.90;;;;;;5070160;28;20127;-75
2022/12/07 00:53:56;;;;;;;12.15;2.10;;;4.00;99.90;;;;;;5084809;28;20036;-75
2022/12/07 00:56:27;;;;;;;13.35;1.88;;;4.10;99.90;;;;;;5078009;28;20047;-75
2022/12/07 00:59:01;;;;;;;10.23;1.90;;;4.20;99.90;;;;;;5084635;28;20090;-74
2022/12/07 01:01:30;;;;;;;8.75;1.95;;;4.10;99.90;;;;;;5090044;28;20202;-75
2022/12/07 01:04:01;;;;;;;12.10;2.08;;;4.50;99.90;;;;;;5089629;28;21149;-74
2022/12/07 01:06:27;;;;;;;9.50;1.77;;;4.10;99.90;;;;;;5073255;28;20278;-76
2022/12/07 01:08:53;;;;;;;8.63;1.90;;;5.60;99.90;;;;;;5079849;28;20040;-75
2022/12/07 01:11:23;;;;;;;9.70;2.00;;;4.90;99.90;;;;;;5101598;28;20039;-74
2022/12/07 01:13:53;;;;;;;11.07;2.10;;;4.40;99.90;;;;;;5091089;28;20043;-75
2022/12/07 01:16:20;;;;;;;9.45;1.95;;;4.50;99.90;;;;;;5085304;28;20115;-75
2022/12/07 01:18:48;;;;;;;9.80;1.88;;;5.00;99.90;;;;;;5084583;28;20035;-76
2022/12/07 01:21:17;;;;;;;11.15;1.70;;;4.60;99.90;;;;;;5090705;28;20036;-74
2022/12/07 01:23:43;;;;;;;7.90;2.10;;;4.60;99.90;;;;;;5098980;28;20164;-76
2022/12/07 01:26:15;;;;;;;14.00;1.70;;;4.60;99.90;;;;;;5110667;28;20059;-74
2022/12/07 01:28:45;;;;;;;9.93;1.87;;;4.60;99.90;;;;;;5075756;28;20047;-76
2022/12/07 01:31:17;;;;;;;9.38;1.98;;;4.60;99.90;;;;;;5085891;28;20036;-75
2022/12/07 01:33:45;;;;;;;6.67;1.47;;;4.60;99.90;;;;;;5092671;28;20520;-75
2022/12/07 01:36:22;;;;;;;10.20;2.05;;;5.30;99.90;;;;;;5101704;28;20039;-75
2022/12/07 01:38:53;;;;;;;9.27;1.50;;;4.50;99.90;;;;;;5077088;28;20035;-74
2022/12/07 01:41:24;;;;;;;10.38;1.73;;;4.40;99.90;;;;;;5094563;28;20047;-75
2022/12/07 01:44:26;;;;;;;7.75;1.73;;;4.40;99.90;;;;;;5108235;28;20050;-75
2022/12/07 01:46:55;;;;;;;7.07;1.45;;;4.40;99.90;;;;;;4991542;28;20415;-74
2022/12/07 01:49:48;;;;;;;10.43;1.85;;;4.90;99.90;;;;;;5077728;28;20128;-75
2022/12/07 01:52:29;;;;;;;12.73;2.15;;;4.40;99.90;;;;;;5090492;28;20410;-74
2022/12/07 01:55:00;;;;;;;7.00;1.83;;;4.50;99.90;;;;;;5091967;28;20040;-75
2022/12/07 01:57:26;;;;;;;5.78;1.48;;;4.60;99.90;;;;;;5100003;28;20412;-74
2022/12/07 01:59:53;;;;;;;8.93;1.85;;;4.60;99.90;;;;;;5089527;28;20040;-74
2022/12/07 02:02:28;;;;;;;8.55;1.63;;;5.00;99.90;;;;;;5082443;28;20063;-75
2022/12/07 02:04:55;;;;;;;7.63;1.48;;;4.60;99.90;;;;;;5109237;28;20095;-75
2022/12/07 02:07:23;;;;;;;9.30;1.70;;;4.50;99.90;;;;;;5078320;28;20040;-75
2022/12/07 02:09:48;;;;;;;8.20;1.40;;;4.50;99.90;;;;;;5078049;28;20427;-75
2022/12/07 02:12:14;;;;;;;7.55;1.20;;;4.50;99.90;;;;;;5096517;28;20533;-76
2022/12/07 02:14:40;;;;;;;11.63;1.88;;;4.40;99.90;;;;;;5104444;28;20046;-75
2022/12/07 02:17:48;;;;;;;8.75;1.80;;;4.40;99.90;;;;;;5054031;28;20036;-73
2022/12/07 02:20:14;;;;;;;8.57;1.60;;;4.30;99.90;;;;;;5082625;28;20055;-75
2022/12/07 02:23:35;;;;;;;8.35;1.50;;;5.30;99.90;;;;;;5077584;28;20278;-75
2022/12/07 02:26:26;;;;;;;10.57;2.05;;;4.20;99.90;;;;;;5009451;28;20060;-74
2022/12/07 02:29:10;;;;;;;6.88;1.70;;;4.10;99.90;;;;;;5088160;28;20135;-74
2022/12/07 02:31:43;;;;;;;7.88;1.58;;;5.30;99.90;;;;;;5105684;28;20082;-75
2022/12/07 02:34:19;;;;;;;8.75;1.65;;;4.40;99.90;;;;;;5087733;28;20040;-75
2022/12/07 02:36:55;;;;;;;10.77;1.70;;;4.00;99.90;;;;;;5077361;28;20093;-73
2022/12/07 02:39:50;;;;;;;11.73;1.80;;;3.90;99.90;;;;;;5107600;28;20144;-74
2022/12/07 02:42:25;;;;;;;10.55;2.10;;;3.90;99.90;;;;;;5068240;28;20042;-74
2022/12/07 02:44:51;;;;;;;8.55;1.98;;;4.50;99.90;;;;;;5085333;28;20308;-74
2022/12/07 02:47:21;;;;;;;10.82;2.40;;;3.80;99.90;;;;;;5077564;28;20561;-75
2022/12/07 02:49:47;;;;;;;11.05;2.83;;;4.90;99.90;;;;;;5108712;28;20114;-75
2022/12/07 02:52:13;;;;;;;11.00;3.05;;;3.80;99.90;;;;;;5069506;28;20040;-75
2022/12/07 02:54:38;;;;;;;8.68;2.38;;;3.70;99.90;;;;;;5102408;28;20055;-74
2022/12/07 02:57:43;;;;;;;10.80;2.80;;;3.80;99.90;;;;;;5084543;28;20119;-74
2022/12/07 03:00:17;;;;;;;11.63;3.38;;;3.80;99.90;;;;;;5075481;28;20058;-75
2022/12/07 03:02:52;;;;;;;14.02;2.83;;;3.80;99.90;;;;;;5077220;28;20115;-75
2022/12/07 03:05:39;;;;;;;10.02;2.00;;;3.90;99.90;;;;;;5092881;28;20036;-75
2022/12/07 03:08:20;;;;;;;10.93;2.08;;;3.90;99.90;;;;;;5096564;28;20032;-75
2022/12/07 03:11:03;;;;;;;13.68;2.10;;;4.00;99.90;;;;;;5093613;28;20345;-75
2022/12/07 03:13:59;;;;;;;9.52;1.77;;;4.00;99.90;;;;;;5075167;28;20040;-74
2022/12/07 03:16:28;;;;;;;11.57;2.08;;;4.10;99.90;;;;;;5076433;28;20118;-75
2022/12/07 03:18:59;;;;;;;13.50;2.08;;;4.10;99.90;;;;;;5088657;28;20150;-75
2022/12/07 03:21:38;;;;;;;9.13;1.80;;;4.20;99.90;;;;;;5075094;28;20066;-75
2022/12/07 03:24:14;;;;;;;10.75;1.90;;;5.00;99.90;;;;;;5098804;28;20084;-75
2022/12/07 03:26:47;;;;;;;10.85;1.95;;;4.20;99.90;;;;;;5076904;28;20564;-75
2022/12/07 03:29:44;;;;;;;10.60;1.73;;;4.30;99.90;;;;;;5102139;28;20039;-75
2022/12/07 03:32:14;;;;;;;12.38;1.98;;;4.20;99.90;;;;;;5069914;28;20129;-75
2022/12/07 03:35:01;;;;;;;8.05;1.58;;;4.40;99.90;;;;;;5091272;28;20040;-75
2022/12/07 03:37:34;;;;;;;11.35;1.90;;;4.20;99.90;;;;;;5096462;28;20397;-75
2022/12/07 03:40:11;;;;;;;11.65;1.77;;;4.80;99.90;;;;;;5090645;28;20108;-75
2022/12/07 03:42:37;;;;;;;10.02;1.73;;;4.20;99.90;;;;;;5079509;28;20043;-75
2022/12/07 03:45:05;;;;;;;7.32;1.88;;;4.20;99.90;;;;;;5091647;28;20044;-74
2022/12/07 03:47:57;;;;;;;9.75;1.95;;;4.20;99.90;;;;;;5100817;28;20456;-74
2022/12/07 03:50:41;;;;;;;9.15;1.38;;;4.70;99.90;;;;;;5102066;28;20083;-74
2022/12/07 03:53:34;;;;;;;17.80;2.15;;;4.30;99.90;;;;;;5075069;28;20555;-73
2022/12/07 03:56:01;;;;;;;10.95;1.70;;;4.40;99.90;;;;;;5040998;28;20044;-75
2022/12/07 03:58:29;;;;;;;9.07;1.65;;;4.40;99.90;;;;;;5103908;28;20115;-74
2022/12/07 04:00:55;;;;;;;11.00;2.00;;;4.50;99.90;;;;;;5096981;28;20044;-75
2022/12/07 04:03:21;;;;;;;7.05;1.52;;;4.40;99.90;;;;;;5101356;28;20043;-75
2022/12/07 04:05:47;;;;;;;11.35;1.85;;;4.40;99.90;;;;;;5105806;28;20040;-75
2022/12/07 04:08:13;;;;;;;6.35;1.42;;;4.60;99.90;;;;;;5085517;28;20046;-75
2022/12/07 04:10:38;;;;;;;7.70;1.85;;;4.30;99.90;;;;;;5084356;28;20047;-75
2022/12/07 04:13:04;;;;;;;7.93;1.42;;;4.30;99.90;;;;;;5110421;28;20281;-75
2022/12/07 04:15:30;;;;;;;7.20;1.50;;;4.20;99.90;;;;;;5097387;28;20500;-74
2022/12/07 04:17:59;;;;;;;6.97;1.40;;;4.80;99.90;;;;;;5068180;28;20047;-75
2022/12/07 04:20:24;;;;;;;14.68;1.70;;;4.00;99.90;;;;;;5073517;28;20120;-75
2022/12/07 04:22:50;;;;;;;6.13;1.25;;;4.10;99.90;;;;;;5066612;28;20474;-75
2022/12/07 04:25:16;;;;;;;8.13;1.70;;;4.40;99.90;;;;;;5088793;28;20043;-75
2022/12/07 04:27:42;;;;;;;8.23;1.40;;;4.00;99.90;;;;;;5092611;28;20131;-75
2022/12/07 04:30:08;;;;;;;5.20;1.30;;;3.90;99.90;;;;;;5102446;28;20047;-74
2022/12/07 04:32:34;;;;;;;7.80;1.52;;;3.90;99.90;;;;;;5094540;28;20040;-74
2022/12/07 04:34:59;;;;;;;6.68;1.40;;;3.90;99.90;;;;;;5091553;28;20052;-73
2022/12/07 04:37:25;;;;;;;8.55;1.52;;;3.90;99.90;;;;;;5070911;28;20028;-74
2022/12/07 04:39:51;;;;;;;6.75;1.40;;;3.90;99.90;;;;;;5092923;28;20550;-75
2022/12/07 04:42:17;;;;;;;5.70;1.35;;;4.10;99.90;;;;;;5087538;28;20619;-75
2022/12/07 04:44:45;;;;;;;8.93;1.40;;;4.00;99.90;;;;;;5094571;28;20044;-74
2022/12/07 04:47:10;;;;;;;6.35;2.17;;;4.00;99.90;;;;;;5082923;28;20066;-75
2022/12/07 04:49:36;;;;;;;9.98;1.88;;;4.10;99.90;;;;;;5107587;28;20039;-75
2022/12/07 04:52:05;;;;;;;9.40;1.58;;;4.70;99.90;;;;;;5093822;28;20044;-74
2022/12/07 04:54:30;;;;;;;8.77;1.80;;;4.20;99.90;;;;;;5064044;28;20051;-75
2022/12/07 04:56:56;;;;;;;7.47;1.60;;;5.00;99.90;;;;;;5099517;28;20044;-74
2022/12/07 04:59:22;;;;;;;7.88;1.70;;;4.10;99.90;;;;;;5103002;28;20386;-75
2022/12/07 05:01:48;;;;;;;10.90;1.77;;;4.10;99.90;;;;;;5096172;28;20039;-76
2022/12/07 05:04:13;;;;;;;7.57;1.48;;;4.10;99.90;;;;;;5085361;28;20105;-75
2022/12/07 05:06:39;;;;;;;10.10;1.67;;;4.70;99.90;;;;;;5084562;28;20039;-74
2022/12/07 05:09:05;;;;;;;8.18;1.60;;;4.50;99.90;;;;;;5046590;28;20503;-74
2022/12/07 05:11:39;;;;;;;8.57;1.90;;;4.50;99.90;;;;;;5093520;28;20036;-74
2022/12/07 05:14:17;;;;;;;8.23;1.80;;;3.90;99.90;;;;;;5102506;28;20331;-75
2022/12/07 05:16:44;;;;;;;9.48;1.70;;;3.80;99.90;;;;;;5097261;28;20048;-75
2022/12/07 05:19:13;;;;;;;7.90;1.50;;;3.70;99.90;;;;;;5090086;28;20048;-75
2022/12/07 05:21:39;;;;;;;5.15;1.30;;;4.20;99.90;;;;;;5089075;28;20039;-75
2022/12/07 05:24:07;;;;;;;8.18;1.42;;;3.60;99.90;;;;;;5072278;28;20051;-75
2022/12/07 05:26:35;;;;;;;6.28;1.60;;;3.50;99.90;;;;;;5097097;28;20051;-74
2022/12/07 05:29:02;;;;;;;9.32;1.80;;;3.50;99.90;;;;;;5076323;28;20031;-75
2022/12/07 05:31:28;;;;;;;9.18;1.67;;;3.50;99.90;;;;;;5099759;28;20093;-75
2022/12/07 05:33:53;;;;;;;8.85;1.42;;;3.40;99.90;;;;;;5086590;28;20448;-75
2022/12/07 05:36:19;;;;;;;4.80;1.30;;;;;;;;;;5072621;28;20115;-75
2022/12/07 05:38:47;;;;;;;7.05;1.42;;;3.30;99.90;;;;;;5089782;28;20119;-75
2022/12/07 05:44:01;;;;;;;5.18;1.42;;;3.30;99.90;;;;;;5093906;28;20048;-75
2022/12/07 05:46:27;;;;;;;4.50;1.13;;;3.30;99.90;;;;;;5089934;28;20048;-75
2022/12/07 05:48:53;;;;;;;8.30;1.50;;;3.50;99.90;;;;;;5091123;28;20150;-75
2022/12/07 05:51:19;;;;;;;4.78;1.40;;;3.20;99.90;;;;;;5071699;28;20075;-75
2022/12/07 05:53:45;;;;;;;12.18;1.70;;;3.10;99.90;;;;;;5093768;28;20035;-76
2022/12/07 05:56:10;;;;;;;9.48;1.88;;;3.50;99.90;;;;;;5071038;28;20508;-73
2022/12/07 06:01:23;;;;;;;9.20;2.13;;;3.50;99.90;;;;;;5087564;28;20066;-75
2022/12/07 06:03:48;;;;;;;12.45;2.15;;;3.00;99.90;;;;;;5093321;28;20067;-75
2022/12/07 06:06:14;;;;;;;7.50;2.08;;;3.10;99.90;;;;;;5073321;28;20062;-74
2022/12/07 06:08:40;;;;;;;11.13;2.30;;;3.50;99.90;;;;;;5091968;28;20048;-75
2022/12/07 06:13:52;;;;;;;13.05;2.00;;;3.00;99.90;;;;;;5091672;28;20052;-75
2022/12/07 06:16:18;;;;;;;11.80;2.10;;;3.00;99.90;;;;;;5102766;28;20413;-74
2022/12/07 06:18:44;;;;;;;10.90;2.17;;;3.10;99.90;;;;;;5098441;28;20035;-74
2022/12/07 06:21:10;;;;;;;9.82;1.92;;;4.50;99.90;;;;;;5089161;28;20039;-76
2022/12/07 06:23:35;;;;;;;9.27;1.95;;;2.30;99.90;;;;;;5078538;28;20118;-75
2022/12/07 06:26:01;;;;;;;8.63;1.55;;;3.30;99.90;;;;;;5060939;28;20040;-74
2022/12/07 06:28:27;;;;;;;11.13;2.33;;;3.90;99.90;;;;;;5102262;28;20126;-75
2022/12/07 06:31:00;;;;;;;9.57;1.90;;;3.50;99.90;;;;;;5086981;28;20489;-76
2022/12/07 06:33:26;;;;;;;12.45;2.10;;;3.60;99.90;;;;;;5075928;28;20079;-75
2022/12/07 06:35:52;;;;;;;11.45;1.80;;;3.70;99.90;;;;;;5089813;28;20040;-76
2022/12/07 06:38:18;;;;;;;11.98;2.10;;;3.70;99.90;;;;;;5085738;28;20066;-75
2022/12/07 06:40:44;;;;;;;7.82;1.50;;;3.70;99.90;;;;;;5070943;28;20036;-76
2022/12/07 06:43:10;;;;;;;11.20;2.13;;;3.70;99.90;;;;;;5087257;28;20409;-76
2022/12/07 06:45:35;;;;;;;11.00;1.90;;;3.70;99.90;;;;;;5064001;28;20123;-74
2022/12/07 06:48:01;;;;;;;11.98;2.00;;;3.60;99.90;;;;;;5093814;28;20066;-74
2022/12/07 06:50:27;;;;;;;6.55;1.70;;;3.60;99.90;;;;;;5100162;28;20047;-76
2022/12/07 06:52:53;;;;;;;8.65;2.33;;;3.60;99.90;;;;;;5091451;28;20051;-75
2022/12/07 06:55:19;;;;;;;8.10;1.50;;;3.60;99.90;;;;;;5108698;28;20095;-75
2022/12/07 06:57:44;;;;;;;7.40;1.70;;;4.80;99.90;;;;;;5078592;28;20119;-75
2022/12/07 07:00:11;;;;;;;5.93;1.45;;;5.10;99.90;;;;;;5074842;28;20171;-73
2022/12/07 07:02:37;;;;;;;7.35;1.55;;;3.50;99.90;;;;;;5090485;28;20488;-75
2022/12/07 07:05:03;;;;;;;7.20;1.63;;;3.40;99.90;;;;;;5091564;28;20066;-75
2022/12/07 07:07:29;;;;;;;9.77;1.58;;;3.40;99.90;;;;;;5091188;28;20079;-74
2022/12/07 07:09:58;;;;;;;7.28;1.60;;;3.30;99.90;;;;;;5090617;28;21138;-74
2022/12/07 07:12:24;;;;;;;7.20;1.45;;;3.30;99.90;;;;;;5057354;28;20586;-74
2022/12/07 07:14:49;;;;;;;10.20;3.00;;;3.60;99.90;;;;;;5074212;28;20289;-75
2022/12/07 07:17:15;;;;;;;12.63;2.30;;;3.80;99.90;;;;;;5087870;28;20043;-78
2022/12/07 07:19:41;;;;;;;9.70;2.03;;;;;;;;;;5087685;28;20040;-75
2022/12/07 07:22:07;;;;;;;7.53;1.75;;;3.60;99.90;;;;;;5087581;28;20346;-75
2022/12/07 07:24:33;;;;;;;10.30;1.90;;;2.60;99.90;;;;;;5090880;28;20043;-76
2022/12/07 07:26:58;;;;;;;12.55;2.08;;;3.60;99.90;;;;;;5095498;28;20044;-75
2022/12/07 07:29:24;;;;;;;9.10;1.75;;;3.60;99.90;;;;;;5088231;28;20069;-74
2022/12/07 07:31:50;;;;;;;9.02;1.70;;;4.20;99.90;;;;;;5086732;28;20115;-75
2022/12/07 07:34:16;;;;;;;11.88;1.90;;;3.90;99.90;;;;;;5084089;28;20039;-74
2022/12/07 07:36:41;;;;;;;7.63;1.60;;;3.60;99.90;;;;;;5066351;28;20032;-75
2022/12/07 07:39:07;;;;;;;6.63;1.48;;;4.20;99.90;;;;;;5104738;28;20031;-74
2022/12/07 07:41:33;;;;;;;9.13;2.05;;;3.70;99.90;;;;;;5094671;28;20043;-76
2022/12/07 07:43:59;;;;;;;8.35;1.80;;;4.50;99.90;;;;;;5064222;28;20032;-75
2022/12/07 07:46:24;;;;;;;6.07;1.60;;;4.50;99.90;;;;;;5083742;28;20039;-73
2022/12/07 07:48:50;;;;;;;6.47;1.48;;;3.70;99.90;;;;;;5069937;28;20068;-76
2022/12/07 07:51:16;;;;;;;9.13;1.60;;;4.40;99.90;;;;;;5074197;28;20109;-75
2022/12/07 07:53:41;;;;;;;7.13;1.55;;;3.70;99.90;;;;;;5085938;28;20501;-74
2022/12/07 07:56:07;;;;;;;10.00;1.92;;;3.70;99.90;;;;;;5080658;28;20044;-76
2022/12/07 07:58:33;;;;;;;8.68;1.73;;;3.80;99.90;;;;;;5074452;28;20040;-75
2022/12/07 08:01:05;;;;;;;12.57;1.95;;;3.80;99.90;;;;;;5060723;28;20127;-75
2022/12/07 08:03:30;;;;;;;6.43;1.50;;;3.80;99.90;;;;;;5089835;28;20035;-74
2022/12/07 08:05:56;;;;;;;7.90;1.73;;;3.80;99.90;;;;;;5064281;28;20046;-74
2022/12/07 08:08:22;;;;;;;8.02;1.50;;;4.10;99.90;;;;;;5089798;28;20126;-74
2022/12/07 08:10:47;;;;;;;8.10;1.70;;;3.80;99.90;;;;;;5092377;28;20151;-75
2022/12/07 08:13:16;;;;;;;9.63;1.85;;;3.80;99.90;;;;;;5073131;28;20409;-75
2022/12/07 08:15:47;;;;;;;6.78;1.80;;;3.70;99.90;;;;;;5076016;28;20505;-75
2022/12/07 08:18:14;;;;;;;6.35;1.45;;;3.70;99.90;;;;;;5078320;28;20082;-73
2022/12/07 08:20:41;;;;;;;9.75;1.77;;;3.70;99.90;;;;;;5072539;28;20040;-75
2022/12/07 08:23:11;;;;;;;9.43;2.30;;;3.70;99.90;;;;;;5107010;28;20036;-75
2022/12/07 08:25:37;;;;;;;10.07;2.40;;;3.70;99.90;;;;;;5104613;28;20047;-76
2022/12/07 08:28:03;;;;;;;13.05;2.47;;;3.60;99.90;;;;;;5103857;28;20048;-75
2022/12/07 08:30:29;;;;;;;9.82;2.10;;;3.60;99.90;;;;;;5088605;28;20054;-73
2022/12/07 08:32:55;;;;;;;9.43;2.08;;;3.60;99.90;;;;;;5078961;28;20044;-74
2022/12/07 08:35:21;;;;;;;9.88;2.40;;;3.60;99.90;;;;;;5080524;28;20401;-75
2022/12/07 08:37:47;;;;;;;11.68;2.10;;;3.60;99.90;;;;;;5091482;28;20036;-75
2022/12/07 08:40:18;;;;;;;14.15;2.30;;;3.70;99.90;;;;;;5067937;28;20059;-74
2022/12/07 08:42:51;;;;;;;6.68;1.92;;;3.70;99.90;;;;;;5071829;28;20079;-75
2022/12/07 08:45:18;;;;;;;11.90;2.42;;;3.60;99.90;;;;;;5090267;28;20115;-76
2022/12/07 08:47:57;;;;;;;9.50;2.15;;;3.60;99.90;;;;;;5073463;28;20052;-76
2022/12/07 08:50:23;;;;;;;10.68;2.60;;;;;;;;;;5090393;28;20063;-75
2022/12/07 08:52:52;;;;;;;11.60;2.42;;;3.60;99.90;;;;;;5082436;28;20040;-74
2022/12/07 08:55:18;;;;;;;13.32;2.63;;;3.80;99.90;;;;;;5089391;28;20036;-75
2022/12/07 08:57:44;;;;;;;10.88;2.00;;;4.10;99.90;;;;;;5080369;28;20032;-74
2022/12/07 09:00:11;;;;;;;12.82;2.30;;;4.00;99.90;;;;;;5075178;28;20032;-75
2022/12/07 09:02:36;;;;;;;12.55;3.03;;;4.20;99.90;;;;;;5082806;28;20071;-75
2022/12/07 09:05:03;;;;;;;13.10;2.00;;;4.30;99.90;;;;;;5095389;28;20071;-76
2022/12/07 09:07:31;;;;;;;11.23;2.30;;;4.40;99.90;;;;;;5074883;28;20524;-75
2022/12/07 09:09:57;;;;;;;8.15;1.92;;;4.50;99.90;;;;;;5095269;28;20114;-75
2022/12/07 09:12:23;;;;;;;9.05;2.53;;;3.70;99.90;;;;;;5091063;28;20595;-75
2022/12/07 09:14:48;;;;;;;14.90;2.50;;;5.50;99.90;;;;;;5088305;28;20131;-75
2022/12/07 09:17:14;;;;;;;11.82;2.30;;;4.70;99.90;;;;;;5090585;28;20036;-76
2022/12/07 09:19:42;;;;;;;11.82;2.03;;;6.20;99.90;;;;;;5107166;28;20086;-76
2022/12/07 09:22:08;;;;;;;9.65;2.03;;;4.80;99.90;;;;;;5069242;28;20031;-75
2022/12/07 09:24:34;;;;;;;11.68;2.00;;;4.90;99.90;;;;;;5083489;28;20042;-75
2022/12/07 09:27:00;;;;;;;8.10;1.70;;;4.90;99.90;;;;;;5100355;28;20563;-75
2022/12/07 09:29:26;;;;;;;8.40;1.52;;;5.00;99.90;;;;;;5062701;28;20036;-75
2022/12/07 09:31:52;;;;;;;10.40;1.77;;;5.00;99.90;;;;;;5072656;28;20481;-74
2022/12/07 09:34:18;;;;;;;6.50;1.83;;;6.10;99.90;;;;;;5089418;28;20108;-75
2022/12/07 09:36:46;;;;;;;11.52;1.90;;;5.80;99.90;;;;;;5069733;28;20504;-76
2022/12/07 09:39:12;;;;;;;10.70;1.88;;;5.30;99.90;;;;;;5077164;28;20031;-75
2022/12/07 09:41:46;;;;;;;10.90;2.08;;;5.40;99.90;;;;;;5087564;28;20416;-76
2022/12/07 09:44:19;;;;;;;10.63;2.20;;;5.40;99.90;;;;;;5097294;28;20042;-76
2022/12/07 09:46:45;;;;;;;10.13;2.10;;;5.80;99.90;;;;;;5091382;28;20308;-76
2022/12/07 09:49:23;;;;;;;11.85;2.72;;;5.50;99.90;;;;;;5078982;28;20386;-76
2022/12/07 09:52:15;;;;;;;8.57;2.08;;;5.50;99.90;;;;;;5055023;28;20114;-76
2022/12/07 09:54:46;;;;;;;9.13;1.90;;;5.50;99.90;;;;;;5093071;28;20043;-75
2022/12/07 09:57:12;;;;;;;8.38;1.85;;;5.50;99.90;;;;;;5076252;28;20044;-74
2022/12/07 09:59:40;;;;;;;10.75;1.80;;;6.10;99.90;;;;;;5089061;28;20097;-75
2022/12/07 10:02:51;;;;;;;6.15;1.45;;;5.50;99.90;;;;;;5088524;28;20414;-75
2022/12/07 10:05:27;;;;;;;6.97;1.30;;;5.60;99.90;;;;;;5070167;28;20046;-75
2022/12/07 10:07:53;;;;;;;8.45;1.40;;;5.70;99.90;;;;;;5071882;28;20051;-75
2022/12/07 10:10:29;;;;;;;10.77;1.90;;;5.70;99.90;;;;;;5071321;28;20039;-75
2022/12/07 10:12:57;;;;;;;5.30;1.80;;;5.80;99.90;;;;;;5086306;28;20513;-75
2022/12/07 10:15:23;;;;;;;7.40;1.88;;;5.80;99.90;;;;;;5089183;28;20032;-75
2022/12/07 10:17:51;;;;;;;9.98;1.90;;;5.80;99.90;;;;;;5091352;28;20100;-75
2022/12/07 10:20:19;;;;;;;11.23;2.08;;;5.80;99.90;;;;;;5087610;28;20043;-75
2022/12/07 10:23:00;;;;;;;6.07;1.38;;;5.80;99.90;;;;;;5105345;27;20124;-75
2022/12/07 10:25:31;;;;;;;16.80;2.17;;;5.80;99.90;;;;;;5074106;28;20585;-75
2022/12/07 10:28:07;;;;;;;9.75;1.90;;;5.80;99.90;;;;;;5080468;28;20126;-76
2022/12/07 10:30:57;;;;;;;10.85;2.17;;;5.80;99.90;;;;;;5091122;28;20568;-76
2022/12/07 10:33:49;;;;;;;8.80;1.70;;;5.80;99.90;;;;;;5071999;28;20104;-75
2022/12/07 10:36:23;;;;;;;8.57;1.83;;;5.80;99.90;;;;;;5073421;28;20168;-75
2022/12/07 10:39:13;;;;;;;9.10;1.60;;;6.60;99.90;;;;;;5102578;28;20137;-75
2022/12/07 10:41:58;;;;;;;6.38;1.60;;;5.90;99.90;;;;;;5082749;28;20055;-75
2022/12/07 10:44:27;;;;;;;9.10;1.77;;;5.90;99.90;;;;;;5096014;28;20036;-75
2022/12/07 10:47:15;;;;;;;6.70;1.75;;;5.90;99.90;;;;;;5088841;28;20032;-75
2022/12/07 10:50:15;;;;;;;10.93;2.17;;;6.20;99.90;;;;;;5102713;28;20466;-76
2022/12/07 10:52:59;;;;;;;8.82;1.55;;;5.90;99.90;;;;;;5094185;28;20051;-75
2022/12/07 10:55:50;;;;;;;8.60;1.70;;;6.00;99.90;;;;;;5078047;28;20491;-75
2022/12/07 10:58:25;;;;;;;7.93;1.63;;;6.10;99.90;;;;;;5091615;28;20122;-75
2022/12/07 11:01:20;;;;;;;7.13;2.03;;;6.10;99.90;;;;;;5079870;28;20040;-75
2022/12/07 11:04:11;;;;;;;11.68;1.70;;;6.10;99.90;;;;;;5075382;28;20090;-75
2022/12/07 11:06:47;;;;;;;9.55;1.90;;;6.10;99.90;;;;;;5091114;28;20358;-75
2022/12/07 11:09:35;;;;;;;10.27;1.88;;;6.10;99.90;;;;;;5093812;28;20116;-74
2022/12/07 11:12:01;;;;;;;7.75;1.33;;;6.00;99.90;;;;;;5093831;28;20512;-75
2022/12/07 11:14:37;;;;;;;9.77;1.70;;;5.80;99.90;;;;;;5077459;28;20047;-75
2022/12/07 11:17:08;;;;;;;8.63;1.48;;;5.80;99.90;;;;;;5106233;28;20046;-76
2022/12/07 11:19:55;;;;;;;7.07;1.70;;;5.70;99.90;;;;;;5077664;28;20053;-76
2022/12/07 11:22:39;;;;;;;4.18;1.13;;;5.70;99.90;;;;;;5073165;28;20035;-74
2022/12/07 11:25:32;;;;;;;9.82;1.50;;;5.60;99.90;;;;;;5088731;28;20034;-75
2022/12/07 11:28:16;;;;;;;4.53;1.30;;;5.60;99.90;;;;;;5091104;28;20432;-74
2022/12/07 11:30:45;;;;;;;6.65;1.45;;;5.50;99.90;;;;;;5073753;28;20055;-75
2022/12/07 11:33:18;;;;;;;5.22;1.40;;;5.50;99.90;;;;;;5091636;28;20035;-76
2022/12/07 11:36:10;;;;;;;6.88;1.55;;;5.50;99.90;;;;;;5110100;28;20036;-75
2022/12/07 11:38:57;;;;;;;7.82;1.63;;;5.60;99.90;;;;;;5064639;28;20051;-75
2022/12/07 11:41:30;;;;;;;7.82;1.70;;;5.60;99.90;;;;;;5082370;28;20048;-76
2022/12/07 11:44:05;;;;;;;10.90;1.92;;;6.00;99.90;;;;;;5089467;28;20493;-76
2022/12/07 11:46:49;;;;;;;7.38;1.52;;;6.20;99.90;;;;;;5081406;28;20051;-76
2022/12/07 11:49:44;;;;;;;10.85;1.98;;;5.80;99.90;;;;;;5106305;28;20036;-75
2022/12/07 11:52:27;;;;;;;9.30;1.60;;;5.90;99.90;;;;;;5092661;28;20032;-76
2022/12/07 11:54:53;;;;;;;9.27;1.70;;;5.90;99.90;;;;;;5088413;28;20063;-76
2022/12/07 11:57:51;;;;;;;8.48;1.70;;;7.30;99.90;;;;;;5081262;28;20074;-75
2022/12/07 12:00:18;;;;;;;7.63;1.58;;;6.00;99.90;;;;;;5062215;28;20048;-75
2022/12/07 12:02:56;;;;;;;8.60;1.80;;;6.00;99.90;;;;;;5109179;28;20450;-76
2022/12/07 12:05:23;;;;;;;11.43;1.90;;;6.00;99.90;;;;;;5097386;28;20035;-75
2022/12/07 12:08:15;;;;;;;8.52;1.92;;;6.00;99.90;;;;;;5090702;28;20104;-76
2022/12/07 12:11:06;;;;;;;10.63;1.63;;;5.90;99.90;;;;;;5087381;28;20058;-75
2022/12/07 12:14:05;;;;;;;8.38;1.88;;;5.90;99.90;;;;;;5081484;28;20043;-75
2022/12/07 12:16:58;;;;;;;10.15;1.83;;;5.80;99.90;;;;;;5073134;28;20036;-76
2022/12/07 12:19:52;;;;;;;8.68;2.10;;;5.80;99.90;;;;;;5090631;28;20043;-76
2022/12/07 12:22:23;;;;;;;9.23;1.83;;;5.80;99.90;;;;;;5075902;28;20109;-74
2022/12/07 12:24:52;;;;;;;11.00;1.88;;;5.70;99.90;;;;;;5080181;28;20410;-76
2022/12/07 12:27:32;;;;;;;10.07;1.77;;;5.70;99.90;;;;;;5082187;28;20044;-75
2022/12/07 12:30:00;;;;;;;14.82;1.90;;;5.70;99.90;;;;;;5093782;28;20123;-75
2022/12/07 12:32:44;;;;;;;6.45;1.60;;;5.70;99.90;;;;;;5091100;28;20413;-76
2022/12/07 12:35:34;;;;;;;9.18;1.58;;;5.70;99.90;;;;;;5094671;28;20123;-75
2022/12/07 12:38:25;;;;;;;4.75;1.42;;;5.70;99.90;;;;;;5100907;28;20046;-76
2022/12/07 12:40:51;;;;;;;6.57;1.60;;;6.40;99.90;;;;;;5094526;28;20063;-76
2022/12/07 12:43:43;;;;;;;8.20;1.70;;;5.80;99.90;;;;;;5097305;28;20429;-75
2022/12/07 12:46:33;;;;;;;10.63;2.17;;;5.80;99.90;;;;;;5078048;28;20155;-75
2022/12/07 12:49:17;;;;;;;8.13;1.70;;;5.90;99.90;;;;;;5101454;28;20059;-75
2022/12/07 12:51:50;;;;;;;7.32;1.58;;;5.90;99.90;;;;;;5093073;28;20067;-75
2022/12/07 12:54:27;;;;;;;9.05;1.67;;;6.00;99.90;;;;;;5073571;28;20039;-76
2022/12/07 12:57:26;;;;;;;7.70;1.80;;;6.70;99.90;;;;;;5090630;28;21232;-75
2022/12/07 12:59:51;;;;;;;7.10;1.50;;;5.90;99.90;;;;;;5091057;28;20047;-76
2022/12/07 13:02:26;;;;;;;8.10;1.70;;;5.90;99.90;;;;;;5089188;28;20058;-76
2022/12/07 13:05:07;;;;;;;8.35;1.80;;;5.90;99.90;;;;;;5088540;28;20044;-76
2022/12/07 13:07:51;;;;;;;7.53;1.98;;;5.80;99.90;;;;;;5100185;28;20074;-75
2022/12/07 13:10:28;;;;;;;6.45;1.80;;;5.80;99.90;;;;;;5091803;28;20554;-76
2022/12/07 13:13:14;;;;;;;8.13;1.60;;;5.90;99.90;;;;;;5090043;28;20120;-75
2022/12/07 13:15:42;;;;;;;6.03;1.50;;;5.70;99.90;;;;;;5097766;28;20031;-76
2022/12/07 13:18:08;;;;;;;8.52;1.60;;;;;;;;;;5101481;28;20505;-76
2022/12/07 13:21:02;;;;;;;9.65;1.50;;;5.70;99.90;;;;;;5071009;28;20052;-76
2022/12/07 13:23:45;;;;;;;11.40;1.60;;;5.70;99.90;;;;;;5057125;28;20494;-75
2022/12/07 13:26:20;;;;;;;9.18;1.70;;;5.70;99.90;;;;;;5087488;28;20044;-75
2022/12/07 13:29:09;;;;;;;8.15;1.70;;;5.70;99.90;;;;;;5090759;28;20052;-76
2022/12/07 13:31:41;;;;;;;7.32;1.73;;;5.70;99.90;;;;;;5085286;28;20134;-75